Adams, Nebraska
Current Conditions -  °F | °C
As of 7:15 PM on Thursday 27 Nov 2014 (Local Time) from KBIE Reporting Station
Clear Clear  
Wind Chill: 23°   Ceiling: Unl
Heat Index: 32°   Visibility: 10mi
Dew Point: 19°   Wind: 10mph
Humidity: 61%   Direction: 140°SE
Pressure: 30.21"   Gusts: NA
Location:  40.46°N, 96.51°W
Report Text: KBIE 280115Z AUTO 14009KT 10SM CLR 00/M07 A3021 RMK AO2 T10021070
Loading
Personal Weather Stations






























Interactive Weather Map New forecast layout! Learn more

10-Day Weather Forecast

Advertisements
Track Severe Weather on mobile